EBBR METAR and TAF | Updated Today

EBBR METAR

Brussels Airport

Observation time: 19 min. ago

EBBR 011450Z 28016G26KT 9999 BKN036 09/02 Q1022 TEMPO 26015G25KT

Need help? Read our tutorial on how to read METARs or read the parsed version below.

Brussels Airport (EBBR) METAR

  • Weather conditions on Wed, 01 Feb 2023 14:50:00 +0000 (19 min. ago):
  • Present conditions: Dry
  • Clouds: Broken sky at 1097 meters
  • Visibility: Greater than 10 km
  • Wind: 280 degrees at 16 knots
  • Temperature: 9 celsius
  • Dew point: 2 celsius
  • Pressure: 1022 millibars
  • Remarks: None


Useful to know...

EBBR TAF

Brussels Airport

TAF EBBR 011120Z 0112/0218 26010KT 9999 FEW040 PROB30 TEMPO 0112/0116 26015G25KT PROB40 TEMPO 0200/0210 BKN012
Observation time: 3:49 hr. ago
Need help? Read our tutorial on how to read TAFs or read the parsed version below.

Parsed version of TAF for Brussels Airport (EBBR)

  • From 01 February at 12:00 UTC, to day 02 of the month at 18:00 UTC
  • Clouds: A few at 1219 meters
  • Visibility: Greater than 10 km
  • Wind: 260 degrees at 10
  • Expected to arise temporarily, from 01 February at 12:00 UTC, to day 01 of the month at 16:00 UTC
    Probability of 30%
  • Wind: 260 degrees at 15
  • Expected to arise temporarily, from 02 February at 00:00 UTC, to day 02 of the month at 10:00 UTC
    Probability of 40%
  • Clouds: Broken sky at 366 meters